Friday, November 17, 2017, 4:14 PM EST
Back to Local

KIJD, Willimantic Windham Airport

Location: North Windham, CT, United States Lat: 41.75
Local Time: 4:14 PM EST (21:14 GMT) Lon: -72.183
Time Zone: US/Eastern Elev: 246 ft

Show me the last for .
Show Decoded

2017-11-17 15:52 METAR KIJD 172052Z AUTO 30009G17KT 10SM CLR 06/M08 A2999 RMK AO2 SLP157
                 T00611078 53015 =
2017-11-17 14:52 METAR KIJD 171952Z AUTO 28010G17KT 10SM CLR 07/M07 A2997 RMK AO2 SLP150
                 T00671067 =
2017-11-17 13:52 METAR KIJD 171852Z AUTO 30009G24KT 10SM CLR 07/M06 A2996 RMK AO2 SLP145
                 T00671056 =
2017-11-17 12:52 METAR KIJD 171752Z AUTO 32008G17KT 270V360 10SM CLR 07/M04 A2995 RMK AO2 SLP142
                 T00671044 10072 20033 55006 =
2017-11-17 11:52 METAR KIJD 171652Z AUTO 29012G23KT 10SM CLR 06/M04 A2995 RMK AO2 SLP141
                 T00611044 =
2017-11-17 10:52 METAR KIJD 171552Z AUTO 31007G20KT 280V340 10SM FEW040 06/M04 A2997 RMK AO2 PK
                 WND 30028/1453 SLP149 T00561039 =
2017-11-17 09:52 METAR KIJD 171452Z AUTO 30018G31KT 10SM CLR 05/M04 A2997 RMK AO2 PK WND
                 30031/1450 SLP149 T00501044 51021 =
2017-11-17 08:52 METAR KIJD 171352Z AUTO 31011G23KT 10SM BKN037 04/M04 A2996 RMK AO2 PK WND
                 34030/1255 SLP144 T00441039 =
2017-11-17 07:52 METAR KIJD 171252Z AUTO 32010G29KT 10SM OVC037 04/M04 A2995 RMK AO2 PK WND
                 32031/1242 SLP141 T00391039 =
2017-11-17 06:52 METAR KIJD 171152Z AUTO 31014G25KT 10SM FEW039 04/M03 A2990 RMK AO2 SLP127 70052
                 T00391033 10061 20039 51031 =
2017-11-17 05:52 METAR KIJD 171052Z AUTO 29009G16KT 10SM BKN039 04/M03 A2988 RMK AO2 SLP117
                 T00391028 =
2017-11-17 04:52 METAR KIJD 170952Z AUTO 31013G25KT 10SM CLR 04/M03 A2984 RMK AO2 PK WND
                 31029/0942 SLP107 T00441028 =
2017-11-17 03:52 METAR KIJD 170852Z AUTO 27011G23KT 10SM CLR 05/M02 A2981 RMK AO2 SLP096
                 T00501017 51009 =
2017-11-17 02:52 METAR KIJD 170752Z AUTO 28012G20KT 10SM SCT038 06/M01 A2980 RMK AO2 SLP093
                 T00561006 =
2017-11-17 01:52 METAR KIJD 170652Z AUTO 32009G18KT 10SM CLR 06/M01 A2981 RMK AO2 SLP095
                 T00561006 =
2017-11-17 00:52 METAR KIJD 170552Z AUTO 29011G18KT 10SM CLR 06/00 A2978 RMK AO2 SLP086 T00610000
                 10078 20039 55000 =
2017-11-16 23:52 METAR KIJD 170452Z AUTO 30012G22KT 10SM CLR 07/01 A2978 RMK AO2 SLP085 T00670006
                 401110022 =
2017-11-16 22:52 METAR KIJD 170352Z AUTO 27005KT 10SM SCT055 06/02 A2978 RMK AO2 SLP086 T00610022
                 =
2017-11-16 21:52 METAR KIJD 170252Z AUTO 00000KT 10SM FEW060 04/03 A2978 RMK AO2 SLP087 T00390028
                 53006 =
2017-11-16 20:52 METAR KIJD 170152Z AUTO 00000KT 10SM BKN060 06/03 A2978 RMK AO2 SLP084 T00610033
                 =
2017-11-16 19:52 METAR KIJD 170052Z AUTO VRB03KT 10SM SCT080 07/03 A2977 RMK AO2 SLP082 T00720033
                 =
2017-11-16 18:52 METAR KIJD 162352Z AUTO 28007KT 10SM SCT049 BKN065 08/04 A2977 RMK AO2 SLP080
                 60003 T00780044 10111 20072 51016 =
2017-11-16 17:52 METAR KIJD 162252Z AUTO 26004KT 10SM SCT043 SCT060 07/05 A2975 RMK AO2
                 RAB2156E25 SLP075 P0002 T00720050 =
2017-11-16 16:52 METAR KIJD 162152Z AUTO 27006KT 10SM FEW045 SCT095 08/07 A2974 RMK AO2 LTG DSNT
                 NW RAE09 PRESRR SLP070 P0000 T00780067 =

Support USWX by starting your Amazon purchase here.